Latest Weather Observations for Tatura

IDV60801

Issued at 9:35 pm EST Saturday 19 April 2014 (issued every 30 minutes, with the page automatically refreshed every 10 minutes)

About weather observations | Map of weather stations | Latest weather observations for VIC | Other Formats
Station Details ID: 081049 Name: TATURA INST SUSTAINABLE AG Lat: -36.44 Lon: 145.27 Height: 114.0 m
Data from the previous 72 hours. | See also: Recent months at Tatura
Date/Time
EST
Temp
°C
App
Temp
°C
Dew
Point
Rel
Hum
%
Delta-T
°C
Wind Press
QNH
hPa
Press
MSL
hPa
Rain
since 9 am
mm
Dir
 
Spd
km/h
Gust
km/h
Spd
kts
Gust
kts
19/09:30pm 5.5 3.7 3.5 87 0.8 WSW 2 6 1 3 - - 0.0
19/09:00pm 6.0 4.6 3.5 84 1.1 SSE 0 0 0 0 - - 0.0
19/08:30pm 7.1 5.8 3.9 80 1.4 CALM 0 0 0 0 - - 0.0
19/08:00pm 7.5 6.3 4.5 81 1.3 SSE 0 0 0 0 - - 0.0
19/07:30pm 7.9 6.7 4.7 80 1.4 CALM 0 0 0 0 - - 0.0
19/07:00pm 9.1 7.2 4.7 74 2.0 SSE 4 7 2 4 - - 0.0
19/06:30pm 10.7 8.1 4.4 65 2.8 SSE 7 9 4 5 - - 0.0
19/06:00pm 11.7 9.1 4.4 61 3.3 S 7 9 4 5 - - 0.0
19/05:30pm 13.4 10.5 4.8 56 4.0 S 9 11 5 6 - - 0.0
19/05:00pm 14.0 11.1 4.6 53 4.4 S 9 13 5 7 - - 0.0
19/04:30pm 14.8 10.9 3.6 47 5.1 S 13 20 7 11 - - 0.0
19/04:00pm 16.0 11.9 4.1 45 5.6 S 15 22 8 12 - - 0.0
19/03:30pm 15.5 10.9 3.9 46 5.4 S 17 24 9 13 - - 0.0
19/03:00pm 15.6 11.6 4.9 49 5.1 S 15 22 8 12 - - 0.0
19/02:30pm 16.5 12.2 5.2 47 5.4 S 17 24 9 13 - - 0.0
19/02:00pm 15.2 11.0 5.7 53 4.6 S 17 22 9 12 - - 0.0
19/01:30pm 15.5 11.6 5.4 51 4.8 S 15 20 8 11 - - 0.0
19/01:00pm 15.8 12.0 5.7 51 4.9 S 15 22 8 12 - - 0.0
19/12:30pm 15.3 10.7 5.8 53 4.6 S 19 26 10 14 - - 0.0
19/12:00pm 15.0 10.9 6.0 55 4.3 S 17 24 9 13 - - 0.0
19/11:30am 15.1 10.4 6.1 55 4.4 S 20 30 11 16 - - 0.0
19/11:00am 14.7 9.9 5.8 55 4.3 S 20 28 11 15 - - 0.0
19/10:30am 14.2 9.6 6.6 60 3.7 S 20 30 11 16 - - 0.0
19/10:00am 13.4 8.7 5.1 57 3.9 S 19 30 10 16 - - 0.0
19/09:30am 12.7 8.9 5.6 62 3.3 SSW 15 20 8 11 - - 0.0
19/09:00am 11.1 8.2 6.3 72 2.3 SW 11 15 6 8 - - 0.0
19/08:30am 9.5 6.6 6.4 81 1.4 WSW 11 15 6 8 - - 0.0
19/08:00am 7.8 6.9 5.9 88 0.9 CALM 0 0 0 0 - - 0.0
19/07:30am 6.2 5.0 4.7 90 0.7 CALM 0 0 0 0 - - 0.0
19/07:00am 4.7 3.2 3.0 89 0.7 CALM 0 0 0 0 - - 0.0
19/06:30am 5.2 3.8 3.5 89 0.7 CALM 0 0 0 0 - - 0.0
19/06:00am 5.0 3.5 3.2 88 0.7 SW 0 0 0 0 - - 0.0
19/05:30am 5.3 3.9 3.3 87 0.8 CALM 0 0 0 0 - - 0.0
19/05:00am 6.1 4.7 3.8 85 1.0 CALM 0 0 0 0 - - 0.0
19/04:30am 6.2 4.8 3.7 84 1.1 CALM 0 6 0 3 - - 0.0
19/04:00am 7.4 4.9 4.0 79 1.5 SSW 6 9 3 5 - - 0.0
19/03:30am 8.0 5.1 4.4 78 1.6 SW 9 13 5 7 - - 0.0
19/03:00am 7.9 5.0 4.7 80 1.4 SSW 9 13 5 7 - - 0.0
19/02:30am 7.8 4.5 4.4 79 1.5 SW 11 13 6 7 - - 0.0
19/02:00am 8.6 5.3 4.4 75 1.9 SW 11 17 6 9 - - 0.0
19/01:30am 8.8 5.2 5.0 77 1.7 SW 13 17 7 9 - - 0.0
19/01:00am 8.6 5.7 4.6 76 1.8 SW 9 13 5 7 - - 0.0
19/12:30am 8.7 5.4 4.3 74 1.9 SW 11 15 6 8 - - 0.0
19/12:00am 9.4 6.1 4.6 72 2.1 WSW 11 15 6 8 - - 0.0
 
Date/Time
EST
Temp
°C
App
Temp
°C
Dew
Point
Rel
Hum
%
Delta-T
°C
Wind Press
QNH
hPa
Press
MSL
hPa
Rain
since 9 am
mm
Dir
 
Spd
km/h
Gust
km/h
Spd
kts
Gust
kts
18/11:30pm 8.7 6.2 4.9 77 1.7 SW 7 13 4 7 - - 0.0
18/11:00pm 9.8 7.3 5.0 72 2.2 SW 7 9 4 5 - - 0.0
18/10:30pm 10.7 7.1 5.0 68 2.6 SSW 13 17 7 9 - - 0.0
18/10:00pm 11.5 7.6 5.2 65 2.9 S 15 22 8 12 - - 0.0
18/09:30pm 11.9 8.3 4.9 62 3.2 SW 13 19 7 10 - - 0.0
18/09:00pm 11.6 8.4 5.3 65 2.9 SW 11 15 6 8 - - 0.0
18/08:30pm 12.7 8.9 5.6 62 3.3 S 15 22 8 12 - - 0.0
18/08:00pm 12.7 8.5 5.8 63 3.3 S 17 20 9 11 - - 0.0
18/07:30pm 12.8 9.4 5.7 62 3.3 SSW 13 17 7 9 - - 0.0
18/07:00pm 12.9 9.6 6.3 64 3.2 S 13 17 7 9 - - 0.0
18/06:30pm 13.1 9.9 6.9 66 3.0 S 13 17 7 9 - - 0.0
18/06:00pm 13.9 10.8 7.2 64 3.3 SSE 13 20 7 11 - - 0.0
18/05:30pm 14.9 11.1 7.7 62 3.6 SSE 17 26 9 14 - - 0.0
18/05:00pm 15.7 11.6 7.7 59 4.0 S 19 32 10 17 - - 0.0
18/04:30pm 16.3 11.0 7.0 54 4.6 S 24 37 13 20 - - 0.0
18/04:00pm 17.0 13.2 9.7 62 3.8 S 20 28 11 15 - - 0.0
18/03:30pm 16.7 12.7 10.5 67 3.3 S 22 32 12 17 - - 0.0
18/03:00pm 17.0 12.9 11.5 70 3.0 SSE 24 35 13 19 - - 0.0
18/02:30pm 20.1 15.0 10.5 54 5.2 SSW 28 39 15 21 - - 0.0
18/02:11pm 20.1 15.3 11.8 59 4.6 SW 28 46 15 25 - - 0.0
18/02:00pm 19.6 14.0 11.4 59 4.5 WSW 32 46 17 25 - - 0.0
18/01:52pm 19.1 13.9 10.1 56 4.8 W 28 48 15 26 - - 0.0
18/01:51pm 19.1 13.9 10.1 56 4.8 W 28 48 15 26 - - 0.0
18/01:30pm 20.8 15.5 10.0 50 5.9 W 28 39 15 21 - - 0.0
18/01:00pm 20.8 16.2 10.9 53 5.5 W 26 41 14 22 - - 0.0
18/12:30pm 20.9 16.0 11.3 54 5.3 W 28 37 15 20 - - 0.0
18/12:00pm 19.0 13.9 10.6 58 4.6 WSW 28 41 15 22 - - 0.0
18/11:59am 19.1 13.9 10.4 57 4.7 WSW 28 41 15 22 - - 0.0
18/11:30am 18.7 16.2 11.0 61 4.2 W 15 20 8 11 - - 0.0
18/11:00am 17.7 15.8 10.6 63 3.8 W 11 15 6 8 - - 0.0
18/10:30am 17.2 15.2 10.3 64 3.7 NW 11 15 6 8 - - 0.0
18/10:00am 16.7 15.4 10.1 65 3.5 NNW 7 13 4 7 - - 0.0
18/09:30am 15.6 14.6 10.2 70 2.8 WNW 6 9 3 5 - - 0.0
18/09:00am 14.5 13.5 10.3 76 2.2 WNW 6 9 3 5 - - 0.0
18/08:30am 13.3 13.6 10.8 85 1.3 CALM 0 0 0 0 - - 0.0
18/08:00am 11.6 10.3 10.0 90 0.8 ENE 7 11 4 6 - - 0.0
18/07:30am 8.4 7.8 7.2 92 0.6 CALM 0 0 0 0 - - 0.0
18/07:00am 8.7 6.8 7.5 92 0.6 E 7 9 4 5 - - 0.0
18/06:30am 7.6 6.7 6.2 91 0.6 CALM 0 6 0 3 - - 0.0
18/06:00am 7.5 6.6 6.1 91 0.6 CALM 0 0 0 0 - - 0.0
18/05:30am 7.2 6.2 5.7 90 0.7 CALM 0 0 0 0 - - 0.0
18/05:00am 7.2 6.2 5.7 90 0.7 CALM 0 0 0 0 - - 0.0
18/04:30am 7.5 6.5 5.8 89 0.8 CALM 0 0 0 0 - - 0.0
18/04:00am 8.4 7.7 6.9 90 0.7 CALM 0 0 0 0 - - 0.0
18/03:30am 9.5 9.1 8.1 91 0.7 CALM 0 0 0 0 - - 0.0
18/03:00am 8.9 8.3 7.4 90 0.7 CALM 0 0 0 0 - - 0.0
18/02:30am 9.6 9.1 8.0 90 0.8 CALM 0 0 0 0 - - 0.0
18/02:00am 9.5 8.9 7.6 88 0.9 CALM 0 0 0 0 - - 0.0
18/01:30am 10.4 10.0 8.2 86 1.1 CALM 0 0 0 0 - - 0.0
18/01:00am 10.5 10.1 8.4 87 1.0 CALM 0 0 0 0 - - 0.0
18/12:30am 11.5 10.6 9.2 86 1.2 NNE 4 7 2 4 - - 0.0
18/12:00am 11.0 10.7 8.8 86 1.1 CALM 0 0 0 0 - - 0.0
 
Date/Time
EST
Temp
°C
App
Temp
°C
Dew
Point
Rel
Hum
%
Delta-T
°C
Wind Press
QNH
hPa
Press
MSL
hPa
Rain
since 9 am
mm
Dir
 
Spd
km/h
Gust
km/h
Spd
kts
Gust
kts
17/11:30pm 11.7 10.6 9.8 88 1.0 NNE 6 7 3 4 - - 0.0
17/11:00pm 11.2 11.0 9.1 87 1.1 CALM 0 0 0 0 - - 0.0
17/10:30pm 11.2 10.9 8.8 85 1.2 CALM 0 0 0 0 - - 0.0
17/10:00pm 11.8 11.6 9.0 83 1.4 CALM 0 0 0 0 - - 0.0
17/09:30pm 12.3 10.9 9.7 84 1.3 NNE 7 9 4 5 - - 0.0
17/09:00pm 12.7 12.9 10.4 86 1.2 CALM 0 0 0 0 - - 0.0
17/08:30pm 12.5 12.5 9.9 84 1.3 CALM 0 0 0 0 - - 0.0
17/08:00pm 12.9 12.9 9.7 81 1.6 CALM 0 0 0 0 - - 0.0
17/07:30pm 13.7 13.9 10.5 81 1.7 CALM 0 0 0 0 - - 0.0
17/07:00pm 14.7 14.8 10.1 74 2.4 CALM 0 0 0 0 - - 0.0
17/06:30pm 15.6 15.9 10.8 73 2.6 CALM 0 0 0 0 - - 0.0
17/06:00pm 17.1 16.1 10.2 64 3.7 N 6 7 3 4 - - 0.0
17/05:30pm 19.2 18.0 9.4 53 5.2 NNW 6 7 3 4 - - 0.0
17/05:00pm 21.0 19.0 8.6 45 6.6 WNW 9 13 5 7 - - 0.0
17/04:30pm 22.1 20.1 8.6 42 7.2 W 9 17 5 9 - - 0.0
17/04:00pm 22.2 20.5 8.3 41 7.4 SW 7 11 4 6 - - 0.0
17/03:30pm 22.6 20.1 8.3 40 7.6 W 11 19 6 10 - - 0.0
17/03:00pm 22.2 19.5 7.2 38 7.8 SW 11 15 6 8 - - 0.0
17/02:30pm 22.6 20.9 7.6 38 7.9 WNW 6 13 3 7 - - 0.0
17/02:00pm 22.2 20.1 8.3 41 7.4 NW 9 19 5 10 - - 0.0
17/01:30pm 22.0 20.9 8.5 42 7.2 NW 4 9 2 5 - - 0.0
17/01:00pm 21.1 19.5 8.7 45 6.6 SW 7 15 4 8 - - 0.0
17/12:30pm 21.0 19.3 8.3 44 6.7 W 7 15 4 8 - - 0.0
17/12:00pm 21.2 19.8 9.4 47 6.3 NW 7 15 4 8 - - 0.0
17/11:30am 20.5 19.7 11.2 55 5.1 NNW 6 11 3 6 - - 0.0
17/11:00am 19.6 19.4 10.3 55 5.0 ESE 2 9 1 5 - - 0.0
17/10:30am 18.8 18.8 9.8 56 4.8 CALM 0 0 0 0 - - 0.0
17/10:00am 17.6 17.8 10.7 64 3.7 CALM 0 0 0 0 - - 0.0
17/09:30am 15.6 14.7 10.6 72 2.7 E 6 7 3 4 - - 0.0
17/09:00am 14.4 14.1 11.4 82 1.6 ESE 4 7 2 4 - - 0.0
17/08:30am 12.5 12.9 11.1 91 0.7 CALM 0 0 0 0 - - 0.0
17/08:00am 10.6 10.1 9.5 93 0.6 SSE 2 6 1 3 - - 0.0
17/07:30am 8.6 8.0 7.5 93 0.5 CALM 0 0 0 0 - - 0.0
17/07:00am 7.4 6.5 6.2 92 0.5 CALM 0 0 0 0 - - 0.0
17/06:30am 6.9 5.9 5.7 92 0.5 CALM 0 0 0 0 - - 0.0
17/06:00am 7.0 6.0 5.8 92 0.5 CALM 0 0 0 0 - - 0.0
17/05:30am 7.0 6.0 5.8 92 0.5 CALM 0 0 0 0 - - 0.0
17/05:00am 7.7 6.9 6.5 92 0.6 CALM 0 0 0 0 - - 0.0
17/04:30am 7.7 6.9 6.5 92 0.6 CALM 0 0 0 0 - - 0.0
17/04:00am 7.8 7.0 6.4 91 0.6 CALM 0 0 0 0 - - 0.0
17/03:30am 8.9 7.0 7.7 92 0.6 SSE 7 9 4 5 - - 0.0
17/03:00am 9.0 6.8 7.8 92 0.6 SSE 9 9 5 5 - - 0.0
17/02:30am 7.8 7.0 6.4 91 0.6 CALM 0 0 0 0 - - 0.0
17/02:00am 7.8 7.0 6.4 91 0.6 CALM 0 0 0 0 - - 0.0
17/01:30am 8.4 7.7 7.0 91 0.7 CALM 0 0 0 0 - - 0.0
17/01:00am 8.5 7.8 7.0 90 0.7 CALM 0 0 0 0 - - 0.0
17/12:30am 8.8 8.1 7.1 89 0.8 CALM 0 0 0 0 - - 0.0
17/12:00am 9.2 8.6 7.3 88 0.9 CALM 0 0 0 0 - - 0.0
 
Date/Time
EST
Temp
°C
App
Temp
°C
Dew
Point
Rel
Hum
%
Delta-T
°C
Wind Press
QNH
hPa
Press
MSL
hPa
Rain
since 9 am
mm
Dir
 
Spd
km/h
Gust
km/h
Spd
kts
Gust
kts
16/11:30pm 9.6 9.1 7.7 88 0.9 CALM 0 0 0 0 - - 0.0
16/11:00pm 10.9 10.7 9.2 89 0.9 CALM 0 0 0 0 - - 0.0
16/10:30pm 10.6 10.3 8.7 88 0.9 CALM 0 0 0 0 - - 0.0
16/10:00pm 10.8 10.5 8.6 86 1.1 CALM 0 0 0 0 - - 0.0

Other Formats:

Comma delimited format used in spreadsheet applications
http://www.bom.gov.au/fwo/IDV60801/IDV60801.95836.axf

JavaScript Object Notation format (JSON) in row-major order
http://www.bom.gov.au/fwo/IDV60801/IDV60801.95836.json